Time;durP1;ratioP1;P1;durP2;ratioP2;P2;SDS_P1;SDS_P2;PMS_P1;PMS_P2;Temp;Humidity;BMP_temperature;BMP_pressure;BME280_temperature;BME280_humidity;BME280_pressure;Samples;Min_cycle;Max_cycle;Signal;HPM_P1;HPM_P2
2022/01/02 00:00:14;;;;;;;7.35;4.97;;;;;;;;;;4993659;28;20034;-38
2022/01/02 00:02:41;;;;;;;8.48;5.22;;;;;;;;;;4994962;28;20050;-36
2022/01/02 00:05:09;;;;;;;8.93;5.00;;;;;;;;;;4995074;28;20390;-39
2022/01/02 00:07:41;;;;;;;8.02;4.78;;;;;;;;;;4995401;28;20034;-37
2022/01/02 00:10:07;;;;;;;6.80;5.20;;;;;;;;;;4995083;28;20530;-37
2022/01/02 00:12:34;;;;;;;7.40;5.20;;;;;;;;;;4994894;28;20470;-37
2022/01/02 00:15:04;;;;;;;10.18;5.50;;;;;;;;;;4994899;28;20031;-37
2022/01/02 00:17:31;;;;;;;9.75;5.72;;;;;;;;;;4995124;28;20524;-38
2022/01/02 00:19:58;;;;;;;9.98;6.30;;;;;;;;;;4995015;28;20026;-38
2022/01/02 00:22:32;;;;;;;11.27;5.70;;;;;;;;;;4994458;28;20037;-37
2022/01/02 00:24:57;;;;;;;12.07;5.45;;;;;;;;;;4994433;28;20037;-37
2022/01/02 00:27:24;;;;;;;7.07;4.88;;;;;;;;;;4994319;28;20038;-37
2022/01/02 00:29:50;;;;;;;6.43;4.88;;;;;;;;;;4994210;28;20489;-37
2022/01/02 00:32:16;;;;;;;7.68;4.82;;;;;;;;;;4993631;28;20030;-37
2022/01/02 00:34:43;;;;;;;6.38;4.50;;;;;;;;;;4993393;28;20046;-38
2022/01/02 00:37:09;;;;;;;7.75;5.18;;;;;;;;;;4993591;28;20061;-38
2022/01/02 00:39:36;;;;;;;6.18;4.63;;;;;;;;;;4993104;28;20015;-37
2022/01/02 00:42:10;;;;;;;6.90;4.65;;;;;;;;;;4993003;28;20533;-37
2022/01/02 00:44:45;;;;;;;12.55;5.03;;;;;;;;;;4991502;28;20363;-38
2022/01/02 00:47:31;;;;;;;6.78;4.75;;;;;;;;;;4993320;28;20014;-39
2022/01/02 00:50:09;;;;;;;8.00;4.60;;;;;;;;;;4991640;28;20058;-37
2022/01/02 00:52:57;;;;;;;9.40;4.63;;;;;;;;;;4990825;28;20101;-37
2022/01/02 00:55:24;;;;;;;7.07;4.40;;;;;;;;;;4991910;28;20026;-38
2022/01/02 00:57:56;;;;;;;7.88;4.35;;;;;;;;;;4992805;28;20109;-38
2022/01/02 01:00:23;;;;;;;8.00;5.22;;;;;;;;;;4993024;28;20022;-37
2022/01/02 01:02:53;;;;;;;6.32;5.13;;;;;;;;;;4992947;28;20029;-37
2022/01/02 01:05:22;;;;;;;9.40;5.47;;;;;;;;;;4992963;28;20018;-38
2022/01/02 01:07:50;;;;;;;12.15;5.85;;;;;;;;;;4992539;28;20453;-37
2022/01/02 01:10:16;;;;;;;10.85;5.68;;;;;;;;;;4992787;28;20106;-36
2022/01/02 01:12:42;;;;;;;10.38;5.75;;;;;;;;;;4992359;28;20554;-38
2022/01/02 01:15:09;;;;;;;8.77;5.93;;;;;;;;;;4992285;28;20068;-37
2022/01/02 01:17:38;;;;;;;12.40;5.43;;;;;;;;;;4993622;28;20556;-38
2022/01/02 01:20:07;;;;;;;7.93;4.78;;;;;;;;;;4993446;28;20034;-38
2022/01/02 01:22:33;;;;;;;7.55;4.75;;;;;;;;;;4993651;28;20030;-37
2022/01/02 01:24:58;;;;;;;7.47;4.82;;;;;;;;;;4993861;28;20029;-36
2022/01/02 01:27:24;;;;;;;9.07;5.30;;;;;;;;;;4993742;28;20249;-38
2022/01/02 01:29:50;;;;;;;7.38;5.32;;;;;;;;;;4993456;28;20386;-37
2022/01/02 01:32:15;;;;;;;7.70;4.50;;;;;;;;;;4993730;28;20034;-38
2022/01/02 01:34:41;;;;;;;7.88;4.75;;;;;;;;;;4993129;28;20069;-37
2022/01/02 01:37:06;;;;;;;10.10;4.75;;;;;;;;;;4993030;28;20061;-36
2022/01/02 01:39:32;;;;;;;9.80;5.30;;;;;;;;;;4993143;28;20433;-36
2022/01/02 01:42:06;;;;;;;7.53;4.68;;;;;;;;;;4992851;28;20019;-39
2022/01/02 01:44:51;;;;;;;7.20;4.70;;;;;;;;;;4992674;28;20113;-36
2022/01/02 01:47:16;;;;;;;8.63;4.82;;;;;;;;;;4992587;28;20498;-36
2022/01/02 01:49:41;;;;;;;9.90;5.00;;;;;;;;;;4991473;28;20030;-36
2022/01/02 01:52:07;;;;;;;10.75;4.55;;;;;;;;;;4993191;28;20046;-37
2022/01/02 01:54:32;;;;;;;8.70;4.32;;;;;;;;;;4993366;28;20030;-36
2022/01/02 01:56:58;;;;;;;10.65;4.55;;;;;;;;;;4993189;28;20378;-36
2022/01/02 01:59:23;;;;;;;8.27;4.85;;;;;;;;;;4993140;28;20037;-37
2022/01/02 02:01:50;;;;;;;11.00;4.78;;;;;;;;;;4991828;28;20054;-36
2022/01/02 02:04:16;;;;;;;12.10;5.35;;;;;;;;;;4993107;28;20544;-37
2022/01/02 02:06:42;;;;;;;10.52;4.85;;;;;;;;;;4993044;28;20049;-37
2022/01/02 02:09:09;;;;;;;9.90;5.85;;;;;;;;;;4992354;28;20377;-37
2022/01/02 02:11:39;;;;;;;9.85;5.32;;;;;;;;;;4992550;28;20057;-37
2022/01/02 02:14:07;;;;;;;7.83;4.87;;;;;;;;;;4992206;28;20074;-38
2022/01/02 02:16:34;;;;;;;8.73;5.00;;;;;;;;;;4992836;28;20034;-37
2022/01/02 02:18:59;;;;;;;8.10;4.90;;;;;;;;;;4993312;28;20034;-38
2022/01/02 02:21:43;;;;;;;8.68;5.18;;;;;;;;;;4993221;28;20451;-37
2022/01/02 02:24:09;;;;;;;8.07;4.57;;;;;;;;;;4993318;28;20031;-36
2022/01/02 02:26:37;;;;;;;8.35;5.20;;;;;;;;;;4993316;28;20662;-37
2022/01/02 02:29:04;;;;;;;8.88;4.80;;;;;;;;;;4993219;28;20026;-37
2022/01/02 02:31:30;;;;;;;9.85;5.60;;;;;;;;;;4993229;28;20118;-37
2022/01/02 02:33:55;;;;;;;8.63;4.90;;;;;;;;;;4992996;28;20058;-38
2022/01/02 02:36:20;;;;;;;8.10;4.88;;;;;;;;;;4993299;28;20030;-37
2022/01/02 02:38:46;;;;;;;8.32;5.00;;;;;;;;;;4992928;28;20355;-39
2022/01/02 02:41:11;;;;;;;9.82;4.80;;;;;;;;;;4992826;28;20493;-38
2022/01/02 02:49:06;;;;;;;7.25;4.45;;;;;;;;;;4993084;28;20114;-37
2022/01/02 02:54:42;;;;;;;7.43;4.65;;;;;;;;;;4994480;28;20030;-37
2022/01/02 02:57:11;;;;;;;12.32;5.75;;;;;;;;;;4994978;28;20035;-38
2022/01/02 02:59:37;;;;;;;10.23;5.63;;;;;;;;;;4996634;28;20041;-37
2022/01/02 03:02:03;;;;;;;10.55;5.95;;;;;;;;;;4996658;28;20030;-37
2022/01/02 03:04:28;;;;;;;9.23;5.75;;;;;;;;;;4996608;28;20406;-37
2022/01/02 03:06:55;;;;;;;10.10;6.03;;;;;;;;;;4996228;28;20026;-36
2022/01/02 03:12:01;;;;;;;9.63;5.43;;;;;;;;;;4996508;28;20081;-37
2022/01/02 03:14:26;;;;;;;7.68;4.75;;;;;;;;;;4996044;28;20035;-38
2022/01/02 03:16:52;;;;;;;11.15;5.38;;;;;;;;;;4996089;28;20030;-37
2022/01/02 03:19:17;;;;;;;8.95;5.05;;;;;;;;;;4995999;28;20390;-36
2022/01/02 03:21:42;;;;;;;10.10;4.97;;;;;;;;;;4996204;28;20030;-37
2022/01/02 03:24:08;;;;;;;6.85;4.65;;;;;;;;;;4995880;28;20026;-37
2022/01/02 03:26:33;;;;;;;10.48;5.40;;;;;;;;;;4994676;28;20027;-37
2022/01/02 03:28:59;;;;;;;11.05;6.75;;;;;;;;;;4995912;28;20033;-37
2022/01/02 03:31:24;;;;;;;9.90;5.65;;;;;;;;;;4996130;28;20023;-37
2022/01/02 03:33:50;;;;;;;13.02;6.75;;;;;;;;;;4996039;28;20088;-39
2022/01/02 03:36:15;;;;;;;11.75;5.13;;;;;;;;;;4995897;28;20381;-38
2022/01/02 03:38:40;;;;;;;10.75;5.82;;;;;;;;;;4995819;28;20026;-39
2022/01/02 03:41:06;;;;;;;10.38;6.18;;;;;;;;;;4995647;28;20154;-38
2022/01/02 03:43:31;;;;;;;9.77;6.50;;;;;;;;;;4995870;28;20038;-38
2022/01/02 03:45:57;;;;;;;11.13;6.45;;;;;;;;;;4995851;28;20553;-37
2022/01/02 03:48:22;;;;;;;10.88;7.03;;;;;;;;;;4995821;28;20084;-37
2022/01/02 03:50:48;;;;;;;12.00;6.20;;;;;;;;;;4995695;28;20425;-37
2022/01/02 03:53:13;;;;;;;11.23;6.82;;;;;;;;;;4995311;28;20510;-38
2022/01/02 03:55:39;;;;;;;16.60;6.80;;;;;;;;;;4995610;28;20034;-38
2022/01/02 03:58:05;;;;;;;9.70;6.32;;;;;;;;;;4995307;28;20033;-38
2022/01/02 04:00:30;;;;;;;11.60;6.15;;;;;;;;;;4995308;28;20057;-37
2022/01/02 04:02:56;;;;;;;11.60;7.00;;;;;;;;;;4995481;28;20022;-38
2022/01/02 04:05:21;;;;;;;10.90;6.90;;;;;;;;;;4994841;28;20112;-37
2022/01/02 04:07:47;;;;;;;12.13;6.88;;;;;;;;;;4995307;28;20034;-38
2022/01/02 04:10:18;;;;;;;18.17;7.97;;;;;;;;;;4995170;28;20038;-36
2022/01/02 04:12:43;;;;;;;16.52;8.63;;;;;;;;;;4995358;28;20053;-38
2022/01/02 04:15:10;;;;;;;15.88;6.70;;;;;;;;;;4994058;28;20470;-37
2022/01/02 04:17:38;;;;;;;11.60;7.10;;;;;;;;;;4994097;28;20482;-38
2022/01/02 04:20:06;;;;;;;11.10;6.80;;;;;;;;;;4994941;28;20037;-38
2022/01/02 04:22:32;;;;;;;13.05;6.95;;;;;;;;;;4995090;28;20042;-37
2022/01/02 04:24:58;;;;;;;12.57;7.22;;;;;;;;;;4994765;28;20477;-38
2022/01/02 04:27:24;;;;;;;11.88;7.15;;;;;;;;;;4994747;28;20034;-37
2022/01/02 04:29:50;;;;;;;19.58;8.35;;;;;;;;;;4994725;28;20481;-38
2022/01/02 04:32:16;;;;;;;12.55;7.95;;;;;;;;;;4994967;28;20037;-38
2022/01/02 04:34:42;;;;;;;16.35;7.03;;;;;;;;;;4994863;28;20065;-39
2022/01/02 04:37:08;;;;;;;9.75;5.65;;;;;;;;;;4994812;28;20046;-39
2022/01/02 04:39:34;;;;;;;12.32;6.50;;;;;;;;;;4994973;28;20029;-37
2022/01/02 04:42:00;;;;;;;10.55;6.75;;;;;;;;;;4994790;28;20018;-38
2022/01/02 04:44:26;;;;;;;10.27;6.40;;;;;;;;;;4994741;28;20053;-38
2022/01/02 04:46:51;;;;;;;10.63;6.03;;;;;;;;;;4994708;28;20018;-38
2022/01/02 04:49:17;;;;;;;12.30;7.15;;;;;;;;;;4994684;28;20026;-38
2022/01/02 04:51:42;;;;;;;15.95;6.63;;;;;;;;;;4994140;28;20049;-38
2022/01/02 04:54:07;;;;;;;14.10;6.72;;;;;;;;;;4994474;28;20360;-38
2022/01/02 04:56:33;;;;;;;12.65;7.07;;;;;;;;;;4994166;28;20426;-38
2022/01/02 04:58:58;;;;;;;13.18;6.80;;;;;;;;;;4994382;28;20037;-37
2022/01/02 05:01:24;;;;;;;13.75;6.15;;;;;;;;;;4994475;28;20038;-38
2022/01/02 05:03:49;;;;;;;10.10;5.47;;;;;;;;;;4994112;28;20482;-37
2022/01/02 05:06:15;;;;;;;10.30;5.97;;;;;;;;;;4994113;28;20022;-38
2022/01/02 05:08:44;;;;;;;11.38;6.03;;;;;;;;;;4994005;28;20033;-37
2022/01/02 05:11:10;;;;;;;9.40;6.00;;;;;;;;;;4994191;28;20065;-38
2022/01/02 05:13:36;;;;;;;10.20;5.70;;;;;;;;;;4994000;28;20025;-38
2022/01/02 05:16:01;;;;;;;11.13;6.05;;;;;;;;;;4994166;28;20038;-38
2022/01/02 05:18:26;;;;;;;12.95;7.28;;;;;;;;;;4992978;28;20085;-37
2022/01/02 05:20:52;;;;;;;14.10;6.50;;;;;;;;;;4993782;28;20028;-38
2022/01/02 05:23:19;;;;;;;11.95;5.45;;;;;;;;;;4993688;28;20110;-37
2022/01/02 05:25:45;;;;;;;11.88;6.25;;;;;;;;;;4994102;28;20363;-37
2022/01/02 05:28:11;;;;;;;12.43;6.55;;;;;;;;;;4993977;28;20030;-38
2022/01/02 05:30:37;;;;;;;12.45;6.28;;;;;;;;;;4993974;28;20363;-37
2022/01/02 05:33:03;;;;;;;10.10;5.93;;;;;;;;;;4993524;28;20022;-37
2022/01/02 05:35:30;;;;;;;13.57;5.70;;;;;;;;;;4993819;28;20052;-38
2022/01/02 05:37:55;;;;;;;11.20;6.10;;;;;;;;;;4993749;28;20031;-38
2022/01/02 05:40:21;;;;;;;10.75;5.93;;;;;;;;;;4993771;28;20101;-37
2022/01/02 05:42:47;;;;;;;8.90;5.75;;;;;;;;;;4993746;28;20053;-38
2022/01/02 05:45:12;;;;;;;10.60;5.95;;;;;;;;;;4993360;28;20543;-37
2022/01/02 05:47:38;;;;;;;13.93;5.40;;;;;;;;;;4992155;28;20156;-38
2022/01/02 05:50:05;;;;;;;9.23;5.30;;;;;;;;;;4993410;28;20037;-38
2022/01/02 05:52:31;;;;;;;12.30;6.13;;;;;;;;;;4993287;28;20042;-38
2022/01/02 05:54:57;;;;;;;12.35;5.93;;;;;;;;;;4993519;28;20037;-39
2022/01/02 05:57:23;;;;;;;13.48;6.15;;;;;;;;;;4993293;28;20113;-38
2022/01/02 05:59:48;;;;;;;14.13;6.32;;;;;;;;;;4993501;28;20030;-38
2022/01/02 06:02:14;;;;;;;10.02;6.13;;;;;;;;;;4993553;28;20029;-37
2022/01/02 06:04:39;;;;;;;14.07;5.90;;;;;;;;;;4993425;28;20553;-38
2022/01/02 06:07:05;;;;;;;11.45;5.70;;;;;;;;;;4993387;28;20041;-38
2022/01/02 06:09:30;;;;;;;10.90;6.50;;;;;;;;;;4993360;28;20471;-38
2022/01/02 06:11:56;;;;;;;9.70;5.47;;;;;;;;;;4993092;28;20024;-38
2022/01/02 06:14:21;;;;;;;10.77;5.18;;;;;;;;;;4993044;28;20033;-38
2022/01/02 06:16:47;;;;;;;14.45;6.38;;;;;;;;;;4993368;28;20031;-38
2022/01/02 06:19:12;;;;;;;13.85;6.82;;;;;;;;;;4993005;28;20474;-37
2022/01/02 06:21:37;;;;;;;11.18;5.70;;;;;;;;;;4993004;28;20027;-38
2022/01/02 06:24:03;;;;;;;11.40;6.10;;;;;;;;;;4992945;28;20038;-37
2022/01/02 06:26:28;;;;;;;9.57;6.13;;;;;;;;;;4992872;28;20058;-38
2022/01/02 06:28:54;;;;;;;10.45;6.10;;;;;;;;;;4994172;28;20064;-38
2022/01/02 06:31:19;;;;;;;11.57;6.07;;;;;;;;;;4997243;28;20023;-38
2022/01/02 06:33:44;;;;;;;11.57;6.05;;;;;;;;;;4997173;28;20385;-38
2022/01/02 06:36:10;;;;;;;11.52;5.95;;;;;;;;;;4997097;28;20040;-38
2022/01/02 06:38:35;;;;;;;11.55;5.97;;;;;;;;;;4997165;28;20451;-38
2022/01/02 06:41:01;;;;;;;14.70;6.32;;;;;;;;;;4997106;28;20034;-38
2022/01/02 06:43:26;;;;;;;11.38;6.13;;;;;;;;;;4996806;28;20061;-37
2022/01/02 06:45:52;;;;;;;10.70;5.88;;;;;;;;;;4997005;28;20038;-37
2022/01/02 06:48:17;;;;;;;10.77;6.28;;;;;;;;;;4996987;28;20030;-38
2022/01/02 06:50:43;;;;;;;12.88;6.45;;;;;;;;;;4996511;28;20437;-38
2022/01/02 06:53:08;;;;;;;11.55;6.13;;;;;;;;;;4996454;28;20039;-37
2022/01/02 06:55:34;;;;;;;10.85;5.82;;;;;;;;;;4996739;28;20031;-38
2022/01/02 06:57:59;;;;;;;14.45;6.28;;;;;;;;;;4996774;28;20101;-38
2022/01/02 07:00:25;;;;;;;10.35;5.57;;;;;;;;;;4996708;28;20037;-36
2022/01/02 07:02:50;;;;;;;12.38;6.03;;;;;;;;;;4996396;28;20022;-37
2022/01/02 07:05:15;;;;;;;10.43;5.57;;;;;;;;;;4996327;28;20022;-38
2022/01/02 07:07:42;;;;;;;11.32;5.68;;;;;;;;;;4996588;28;20071;-38
2022/01/02 07:10:10;;;;;;;7.90;5.60;;;;;;;;;;4996335;28;20057;-38
2022/01/02 07:12:36;;;;;;;10.98;6.00;;;;;;;;;;4996543;28;20027;-37
2022/01/02 07:15:02;;;;;;;13.32;6.18;;;;;;;;;;4996055;28;20555;-38
2022/01/02 07:17:28;;;;;;;9.05;5.30;;;;;;;;;;4996400;28;20374;-38
2022/01/02 07:19:53;;;;;;;10.32;5.72;;;;;;;;;;4996073;28;20030;-39
2022/01/02 07:22:19;;;;;;;11.13;5.88;;;;;;;;;;4996029;28;20101;-37
2022/01/02 07:24:50;;;;;;;9.95;5.30;;;;;;;;;;4996214;28;20037;-38
2022/01/02 07:27:16;;;;;;;8.15;5.80;;;;;;;;;;4996241;28;20026;-37
2022/01/02 07:29:41;;;;;;;8.35;5.70;;;;;;;;;;4994647;28;20481;-38
2022/01/02 07:32:07;;;;;;;10.98;5.70;;;;;;;;;;4996185;28;20472;-37
2022/01/02 07:34:32;;;;;;;9.15;5.55;;;;;;;;;;4995752;28;20037;-38
2022/01/02 07:36:57;;;;;;;9.35;6.05;;;;;;;;;;4995961;28;20038;-38
2022/01/02 07:39:23;;;;;;;9.55;5.97;;;;;;;;;;4995999;28;20025;-38
2022/01/02 07:41:49;;;;;;;8.80;6.25;;;;;;;;;;4994945;28;20482;-38
2022/01/02 07:44:14;;;;;;;8.52;6.18;;;;;;;;;;4995986;28;20620;-39
2022/01/02 07:46:39;;;;;;;10.60;6.75;;;;;;;;;;4995820;28;20033;-38
2022/01/02 07:49:05;;;;;;;9.05;6.18;;;;;;;;;;4995777;28;20065;-37
2022/01/02 07:51:31;;;;;;;10.35;6.15;;;;;;;;;;4995299;28;20209;-37
2022/01/02 07:53:57;;;;;;;8.80;5.50;;;;;;;;;;4995362;28;20034;-38
2022/01/02 07:56:22;;;;;;;8.57;5.95;;;;;;;;;;4995334;28;20055;-39
2022/01/02 07:58:47;;;;;;;9.55;5.93;;;;;;;;;;4995639;28;20065;-38
2022/01/02 08:01:13;;;;;;;8.40;6.13;;;;;;;;;;4995594;28;20029;-37
2022/01/02 08:03:39;;;;;;;10.43;6.20;;;;;;;;;;4995565;28;20061;-37
2022/01/02 08:06:04;;;;;;;7.95;5.57;;;;;;;;;;4995271;28;20030;-37
2022/01/02 08:08:30;;;;;;;6.80;5.25;;;;;;;;;;4995424;28;20018;-37
2022/01/02 08:10:55;;;;;;;10.32;5.93;;;;;;;;;;4995168;28;20360;-37
2022/01/02 08:13:20;;;;;;;18.92;13.63;;;;;;;;;;4995383;28;20042;-37
2022/01/02 08:15:48;;;;;;;14.13;9.32;;;;;;;;;;4995261;28;20034;-37
2022/01/02 08:18:13;;;;;;;9.18;6.97;;;;;;;;;;4995286;28;20030;-37
2022/01/02 08:20:45;;;;;;;8.90;6.47;;;;;;;;;;4995183;28;20088;-37
2022/01/02 08:23:12;;;;;;;6.70;5.32;;;;;;;;;;4995203;28;20030;-37
2022/01/02 08:25:38;;;;;;;7.53;5.63;;;;;;;;;;4995100;28;20041;-37
2022/01/02 08:28:03;;;;;;;5.97;4.53;;;;;;;;;;4995166;28;20462;-37
2022/01/02 08:30:29;;;;;;;6.28;5.05;;;;;;;;;;4994685;28;20022;-38
2022/01/02 08:32:55;;;;;;;6.38;5.13;;;;;;;;;;4994978;28;20023;-37
2022/01/02 08:35:20;;;;;;;7.25;5.03;;;;;;;;;;4994600;28;20387;-38
2022/01/02 08:37:45;;;;;;;6.47;4.85;;;;;;;;;;4994636;28;20034;-37
2022/01/02 08:40:11;;;;;;;7.75;5.53;;;;;;;;;;4994597;28;20042;-38
2022/01/02 08:42:37;;;;;;;7.32;5.38;;;;;;;;;;4994790;28;20030;-38
2022/01/02 08:45:03;;;;;;;7.40;5.50;;;;;;;;;;4994758;28;20623;-38
2022/01/02 08:47:28;;;;;;;7.72;5.30;;;;;;;;;;4994678;28;20348;-38
2022/01/02 08:49:53;;;;;;;6.85;4.90;;;;;;;;;;4994397;28;20068;-38
2022/01/02 08:52:19;;;;;;;8.43;5.88;;;;;;;;;;4993907;28;20124;-37
2022/01/02 08:54:44;;;;;;;7.28;5.50;;;;;;;;;;4994186;28;20030;-37
2022/01/02 08:57:11;;;;;;;7.82;6.05;;;;;;;;;;4993293;28;20047;-38
2022/01/02 08:59:37;;;;;;;7.57;5.72;;;;;;;;;;4994475;28;20363;-38
2022/01/02 09:02:02;;;;;;;9.02;6.40;;;;;;;;;;4994204;28;20026;-38
2022/01/02 09:04:28;;;;;;;9.15;6.07;;;;;;;;;;4992887;28;20053;-38
2022/01/02 09:06:54;;;;;;;8.35;6.75;;;;;;;;;;4994097;28;20533;-38
2022/01/02 09:09:19;;;;;;;11.15;7.80;;;;;;;;;;4994303;28;20022;-38
2022/01/02 09:11:45;;;;;;;9.88;7.75;;;;;;;;;;4994351;28;20356;-38
2022/01/02 09:14:11;;;;;;;10.73;8.02;;;;;;;;;;4993918;28;20604;-37
2022/01/02 09:16:36;;;;;;;9.23;7.35;;;;;;;;;;4993810;28;20030;-38
2022/01/02 09:19:02;;;;;;;10.82;7.57;;;;;;;;;;4993782;28;20072;-38
2022/01/02 09:21:27;;;;;;;11.07;8.43;;;;;;;;;;4994034;28;20018;-38
2022/01/02 09:23:53;;;;;;;9.52;6.50;;;;;;;;;;4993981;28;20019;-39
2022/01/02 09:26:18;;;;;;;7.30;5.45;;;;;;;;;;4993986;28;20120;-38
2022/01/02 09:28:44;;;;;;;5.72;4.40;;;;;;;;;;4993687;28;20026;-38
2022/01/02 09:31:09;;;;;;;4.80;3.70;;;;;;;;;;4993979;28;20026;-38
2022/01/02 09:33:34;;;;;;;4.75;3.70;;;;;;;;;;4993694;28;20034;-38
2022/01/02 09:36:00;;;;;;;4.63;3.80;;;;;;;;;;4993810;28;20070;-38
2022/01/02 09:38:25;;;;;;;4.50;3.40;;;;;;;;;;4993487;28;20026;-38
2022/01/02 09:40:51;;;;;;;4.47;2.88;;;;;;;;;;4993783;28;20059;-38
2022/01/02 09:43:17;;;;;;;4.00;3.25;;;;;;;;;;4993450;28;20046;-38
2022/01/02 09:45:47;;;;;;;3.83;2.95;;;;;;;;;;4993759;28;20034;-38
2022/01/02 09:48:12;;;;;;;4.00;2.67;;;;;;;;;;4993387;28;20032;-38
2022/01/02 09:50:39;;;;;;;3.13;2.83;;;;;;;;;;4993356;28;20026;-38
2022/01/02 09:53:05;;;;;;;3.17;2.63;;;;;;;;;;4993260;28;20450;-38
2022/01/02 09:55:31;;;;;;;3.78;2.85;;;;;;;;;;4993170;28;20494;-39
2022/01/02 09:57:59;;;;;;;3.83;2.60;;;;;;;;;;4993274;28;20054;-38
2022/01/02 10:00:25;;;;;;;2.78;2.40;;;;;;;;;;4993256;28;20049;-38
2022/01/02 10:02:57;;;;;;;3.55;2.67;;;;;;;;;;4993336;28;20487;-37
2022/01/02 10:05:24;;;;;;;2.88;2.28;;;;;;;;;;4993212;28;20069;-38
2022/01/02 10:07:51;;;;;;;5.13;2.60;;;;;;;;;;4993154;28;20023;-37
2022/01/02 10:10:16;;;;;;;3.17;2.83;;;;;;;;;;4993435;28;20058;-38
2022/01/02 10:12:42;;;;;;;4.88;2.60;;;;;;;;;;4993036;28;20505;-38
2022/01/02 10:15:15;;;;;;;2.78;2.42;;;;;;;;;;4993015;28;20113;-38
2022/01/02 10:18:06;;;;;;;4.00;2.55;;;;;;;;;;4993383;28;20057;-38
2022/01/02 10:20:43;;;;;;;3.80;2.90;;;;;;;;;;4993133;28;20077;-37
2022/01/02 10:23:21;;;;;;;3.22;2.50;;;;;;;;;;4993218;28;20027;-38
2022/01/02 10:25:53;;;;;;;4.90;3.65;;;;;;;;;;4993364;28;20058;-38
2022/01/02 10:28:37;;;;;;;8.07;4.60;;;;;;;;;;4993238;28;20029;-38
2022/01/02 10:31:12;;;;;;;6.50;4.65;;;;;;;;;;4993297;28;20531;-38
2022/01/02 10:33:55;;;;;;;7.05;4.72;;;;;;;;;;4992831;28;20517;-39
2022/01/02 10:36:40;;;;;;;7.65;5.25;;;;;;;;;;4993203;28;20031;-38
2022/01/02 10:39:20;;;;;;;6.68;4.78;;;;;;;;;;4993222;28;20034;-38
2022/01/02 10:41:47;;;;;;;7.32;2.70;;;;;;;;;;4993156;28;20045;-38
2022/01/02 10:44:34;;;;;;;4.63;2.58;;;;;;;;;;4992777;28;20027;-37
2022/01/02 10:47:15;;;;;;;3.50;2.55;;;;;;;;;;4993070;28;20041;-38
2022/01/02 10:50:04;;;;;;;5.10;2.63;;;;;;;;;;4992806;28;20389;-37
2022/01/02 10:52:38;;;;;;;3.78;2.22;;;;;;;;;;4992694;28;20038;-37
2022/01/02 10:55:14;;;;;;;3.10;2.50;;;;;;;;;;4992930;28;20114;-38
2022/01/02 10:57:43;;;;;;;4.40;2.60;;;;;;;;;;4993010;28;20058;-38
2022/01/02 11:00:10;;;;;;;4.95;2.75;;;;;;;;;;4992703;28;20029;-38
2022/01/02 11:02:35;;;;;;;2.97;2.38;;;;;;;;;;4992644;28;20085;-38
2022/01/02 11:05:10;;;;;;;4.97;3.45;;;;;;;;;;4992974;28;20023;-38
2022/01/02 11:07:49;;;;;;;4.78;3.08;;;;;;;;;;4992683;28;20027;-38
2022/01/02 11:10:20;;;;;;;3.50;2.47;;;;;;;;;;4992774;28;20057;-38
2022/01/02 11:12:47;;;;;;;4.70;2.50;;;;;;;;;;4992788;28;20061;-37
2022/01/02 11:15:15;;;;;;;5.80;2.78;;;;;;;;;;4993689;28;20073;-38
2022/01/02 11:17:41;;;;;;;5.32;3.10;;;;;;;;;;4996253;28;20034;-38
2022/01/02 11:20:10;;;;;;;4.55;2.75;;;;;;;;;;4995314;28;20031;-37
2022/01/02 11:22:38;;;;;;;3.65;2.58;;;;;;;;;;4995619;28;20529;-38
2022/01/02 11:25:28;;;;;;;3.42;2.55;;;;;;;;;;4996027;28;20053;-37
2022/01/02 11:28:02;;;;;;;4.75;2.97;;;;;;;;;;4996065;28;20069;-38
2022/01/02 11:30:31;;;;;;;4.53;2.78;;;;;;;;;;4996148;28;20058;-38
2022/01/02 11:33:07;;;;;;;5.32;2.60;;;;;;;;;;4995900;28;20026;-38
2022/01/02 11:35:35;;;;;;;4.72;2.40;;;;;;;;;;4995743;28;20486;-37
2022/01/02 11:38:02;;;;;;;4.68;2.75;;;;;;;;;;4995846;28;20102;-38
2022/01/02 11:40:50;;;;;;;5.65;2.60;;;;;;;;;;4994715;28;20118;-39
2022/01/02 11:43:46;;;;;;;4.22;3.10;;;;;;;;;;4989241;28;20050;-35
2022/01/02 11:46:21;;;;;;;5.15;2.55;;;;;;;;;;4979865;28;20046;-39
2022/01/02 11:49:04;;;;;;;4.18;2.92;;;;;;;;;;4994527;28;20107;-36
2022/01/02 11:51:49;;;;;;;6.30;3.03;;;;;;;;;;4993297;28;20125;-36
2022/01/02 11:54:32;;;;;;;5.15;2.97;;;;;;;;;;4991948;28;20038;-36
2022/01/02 11:57:11;;;;;;;5.72;3.15;;;;;;;;;;4995093;28;20022;-35
2022/01/02 11:59:39;;;;;;;4.07;2.55;;;;;;;;;;4995382;28;20031;-36
2022/01/02 12:02:13;;;;;;;5.63;3.50;;;;;;;;;;4995580;28;20113;-37
2022/01/02 12:10:16;;;;;;;5.15;2.88;;;;;;;;;;4995143;28;20026;-35
2022/01/02 12:13:10;;;;;;;4.82;2.97;;;;;;;;;;4995009;28;20505;-36
2022/01/02 12:15:39;;;;;;;3.65;2.63;;;;;;;;;;4993619;28;20399;-36
2022/01/02 12:18:15;;;;;;;4.97;2.40;;;;;;;;;;4995304;28;20031;-35
2022/01/02 12:20:50;;;;;;;4.63;2.40;;;;;;;;;;4994939;28;20077;-35
2022/01/02 12:23:31;;;;;;;3.55;2.35;;;;;;;;;;4993022;28;20128;-36
2022/01/02 12:26:07;;;;;;;8.15;2.65;;;;;;;;;;4994443;28;20030;-35
2022/01/02 12:28:47;;;;;;;3.53;2.50;;;;;;;;;;4994371;28;20034;-37
2022/01/02 12:31:16;;;;;;;;;;;;;;;;;;4995202;28;20034;-35
2022/01/02 12:33:42;;;;;;;15.27;5.15;;;;;;;;;;4993368;28;19920;-36
2022/01/02 12:36:12;;;;;;;8.93;2.80;;;;;;;;;;4994318;28;20026;-36
2022/01/02 12:39:04;;;;;;;207.87;43.07;;;;;;;;;;4994890;28;20034;-35
2022/01/02 12:41:33;;;;;;;40.03;10.95;;;;;;;;;;4994813;28;20018;-35
2022/01/02 12:44:02;;;;;;;5.35;2.30;;;;;;;;;;4994399;28;20478;-37
2022/01/02 12:46:37;;;;;;;2.65;2.20;;;;;;;;;;4994777;28;20072;-36
2022/01/02 12:49:04;;;;;;;4.53;2.50;;;;;;;;;;4994573;28;20031;-38
2022/01/02 12:51:31;;;;;;;3.97;2.35;;;;;;;;;;4993976;28;20562;-37
2022/01/02 12:54:05;;;;;;;4.03;2.50;;;;;;;;;;4994057;28;20494;-45
2022/01/02 12:56:45;;;;;;;4.85;2.40;;;;;;;;;;4993725;28;20038;-38
2022/01/02 12:59:19;;;;;;;5.85;2.90;;;;;;;;;;4994039;28;20370;-39
2022/01/02 13:01:56;;;;;;;3.90;2.90;;;;;;;;;;4994425;28;20037;-36
2022/01/02 13:04:30;;;;;;;6.28;2.80;;;;;;;;;;4993948;28;20028;-35
2022/01/02 13:06:58;;;;;;;6.88;2.78;;;;;;;;;;4994009;28;20026;-37
2022/01/02 13:09:30;;;;;;;6.05;3.00;;;;;;;;;;4994060;28;20018;-35
2022/01/02 13:11:57;;;;;;;4.65;2.88;;;;;;;;;;4992721;28;20470;-37
2022/01/02 13:14:34;;;;;;;7.88;3.70;;;;;;;;;;4993689;28;20038;-47
2022/01/02 13:17:01;;;;;;;5.93;3.15;;;;;;;;;;4994326;28;20030;-39
2022/01/02 13:19:29;;;;;;;4.47;2.67;;;;;;;;;;4993831;28;20497;-38
2022/01/02 13:21:54;;;;;;;6.88;4.60;;;;;;;;;;4994060;28;20022;-43
2022/01/02 13:24:26;;;;;;;6.35;3.22;;;;;;;;;;4994058;28;20049;-49
2022/01/02 13:26:52;;;;;;;4.70;2.70;;;;;;;;;;4994052;28;20022;-47
2022/01/02 13:29:25;;;;;;;7.50;3.33;;;;;;;;;;4993693;28;20030;-48
2022/01/02 13:31:52;;;;;;;7.05;3.58;;;;;;;;;;4993619;28;20030;-35
2022/01/02 13:34:23;;;;;;;4.53;3.30;;;;;;;;;;4993857;28;20038;-45
2022/01/02 13:37:02;;;;;;;6.72;3.13;;;;;;;;;;4993691;28;20035;-36
2022/01/02 13:39:40;;;;;;;7.35;3.60;;;;;;;;;;4993077;28;20041;-46
2022/01/02 13:42:06;;;;;;;4.78;3.25;;;;;;;;;;4993815;28;20023;-35
2022/01/02 13:44:37;;;;;;;6.40;4.22;;;;;;;;;;4993715;28;20394;-35
2022/01/02 13:47:02;;;;;;;8.27;4.00;;;;;;;;;;4993726;28;20061;-35
2022/01/02 13:49:46;;;;;;;6.40;3.92;;;;;;;;;;4993443;28;20136;-35
2022/01/02 13:52:13;;;;;;;5.28;3.70;;;;;;;;;;4993360;28;20054;-37
2022/01/02 13:54:38;;;;;;;6.38;4.00;;;;;;;;;;4993231;28;20050;-42
2022/01/02 13:57:06;;;;;;;6.57;4.10;;;;;;;;;;4993544;28;20058;-47
2022/01/02 13:59:31;;;;;;;6.47;4.28;;;;;;;;;;4993236;28;20025;-36
2022/01/02 14:01:57;;;;;;;6.18;3.92;;;;;;;;;;4993420;28;20034;-47
2022/01/02 14:04:23;;;;;;;6.05;3.70;;;;;;;;;;4993099;28;20180;-43
2022/01/02 14:06:48;;;;;;;6.35;4.45;;;;;;;;;;4993137;28;20018;-48
2022/01/02 14:09:16;;;;;;;6.68;4.05;;;;;;;;;;4993416;28;20109;-46
2022/01/02 14:11:43;;;;;;;6.28;3.60;;;;;;;;;;4993419;28;20034;-47
2022/01/02 14:14:22;;;;;;;5.85;3.33;;;;;;;;;;4993318;28;20029;-44
2022/01/02 14:19:43;;;;;;;8.75;3.95;;;;;;;;;;4993105;28;20026;-49
2022/01/02 14:22:11;;;;;;;6.43;4.53;;;;;;;;;;4992935;28;20030;-44
2022/01/02 14:24:37;;;;;;;4.63;3.55;;;;;;;;;;4993031;28;20026;-47
2022/01/02 14:27:03;;;;;;;7.57;3.25;;;;;;;;;;4993258;28;20023;-46
2022/01/02 14:29:29;;;;;;;6.45;4.15;;;;;;;;;;4993302;28;20471;-40
2022/01/02 14:31:55;;;;;;;7.18;4.40;;;;;;;;;;4992940;28;20116;-44
2022/01/02 14:34:21;;;;;;;7.05;3.53;;;;;;;;;;4991994;28;20026;-48
2022/01/02 14:36:47;;;;;;;5.57;3.78;;;;;;;;;;4992878;28;20023;-43
2022/01/02 14:39:12;;;;;;;6.18;4.00;;;;;;;;;;4992865;28;20042;-41
2022/01/02 14:41:41;;;;;;;8.60;4.35;;;;;;;;;;4993132;28;20018;-49
2022/01/02 14:44:11;;;;;;;7.55;3.90;;;;;;;;;;4993175;28;20027;-47
2022/01/02 14:46:41;;;;;;;6.03;4.05;;;;;;;;;;4992878;28;20065;-46
2022/01/02 14:49:07;;;;;;;;;;;;;;;;;;4993510;28;20065;-46
2022/01/02 14:51:33;;;;;;;5.68;3.83;;;;;;;;;;4996388;28;19913;-45
2022/01/02 14:53:58;;;;;;;7.97;4.30;;;;;;;;;;4996933;28;20038;-46
2022/01/02 14:56:24;;;;;;;7.57;4.28;;;;;;;;;;4996400;28;20041;-46
2022/01/02 14:58:49;;;;;;;7.97;4.50;;;;;;;;;;4996788;28;20031;-48
2022/01/02 15:01:18;;;;;;;6.43;4.00;;;;;;;;;;4996397;28;20159;-43
2022/01/02 15:03:43;;;;;;;9.32;4.45;;;;;;;;;;4996607;28;20359;-48